Time;durP1;ratioP1;P1;durP2;ratioP2;P2;SDS_P1;SDS_P2;PMS_P1;PMS_P2;Temp;Humidity;BMP_temperature;BMP_pressure;BME280_temperature;BME280_humidity;BME280_pressure;Samples;Min_cycle;Max_cycle;Signal;HPM_P1;HPM_P2
2022/05/31 00:01:35;;;;;;;0.00;0.00;;;8.40;99.90;;;;;;5023463;28;20398;-58
2022/05/31 00:04:01;;;;;;;0.00;0.00;;;8.40;99.90;;;;;;5023188;28;20160;-57
2022/05/31 00:06:27;;;;;;;0.00;0.00;;;8.40;99.90;;;;;;5023250;28;20550;-57
2022/05/31 00:08:53;;;;;;;0.00;0.00;;;8.40;99.90;;;;;;5023882;28;20052;-58
2022/05/31 00:11:19;;;;;;;0.00;0.00;;;8.40;99.90;;;;;;5021987;28;20148;-58
2022/05/31 00:13:45;;;;;;;0.00;0.00;;;8.40;99.90;;;;;;5023754;28;20057;-57
2022/05/31 00:16:11;;;;;;;0.00;0.00;;;8.40;99.90;;;;;;5023430;28;20033;-57
2022/05/31 00:18:37;;;;;;;0.00;0.00;;;8.40;99.90;;;;;;5022869;28;20037;-58
2022/05/31 00:21:03;;;;;;;0.00;0.00;;;8.40;99.90;;;;;;5022752;28;20048;-58
2022/05/31 00:23:29;;;;;;;0.00;0.00;;;8.40;99.90;;;;;;5023249;28;20049;-58
2022/05/31 00:25:54;;;;;;;0.00;0.00;;;8.40;99.90;;;;;;5021057;28;20528;-58
2022/05/31 00:28:20;;;;;;;0.00;0.00;;;8.50;99.90;;;;;;5022401;28;20063;-58
2022/05/31 00:30:46;;;;;;;0.00;0.00;;;8.60;99.90;;;;;;5023332;28;20041;-57
2022/05/31 00:33:11;;;;;;;0.00;0.00;;;8.50;99.90;;;;;;5023806;28;20048;-58
2022/05/31 00:35:41;;;;;;;0.00;0.00;;;8.80;99.90;;;;;;5021379;28;20516;-58
2022/05/31 00:38:08;;;;;;;0.00;0.00;;;8.60;99.90;;;;;;5021339;28;20042;-58
2022/05/31 00:40:35;;;;;;;0.00;0.00;;;8.60;99.90;;;;;;5022080;28;20423;-58
2022/05/31 00:43:05;;;;;;;0.00;0.00;;;8.60;99.90;;;;;;5021681;28;20050;-57
2022/05/31 00:45:45;;;;;;;0.00;0.00;;;8.60;99.90;;;;;;5015591;28;20042;-58
2022/05/31 00:48:27;;;;;;;0.00;0.00;;;8.60;99.90;;;;;;5006785;28;20452;-58
2022/05/31 00:51:00;;;;;;;0.00;0.00;;;8.60;99.90;;;;;;5002258;28;20141;-57
2022/05/31 00:53:34;;;;;;;0.00;0.00;;;8.60;99.90;;;;;;5001762;28;20037;-58
2022/05/31 00:56:04;;;;;;;0.00;0.00;;;8.70;99.90;;;;;;5001486;28;20129;-59
2022/05/31 00:58:33;;;;;;;0.00;0.00;;;8.70;99.90;;;;;;5002683;28;20393;-58
2022/05/31 01:01:03;;;;;;;0.00;0.00;;;8.70;99.90;;;;;;5003016;28;20045;-58
2022/05/31 01:03:28;;;;;;;0.00;0.00;;;8.70;99.90;;;;;;5013569;23;20089;-57
2022/05/31 01:05:54;;;;;;;0.00;0.00;;;8.70;99.90;;;;;;5031748;28;20044;-57
2022/05/31 01:08:21;;;;;;;0.00;0.00;;;8.70;99.90;;;;;;5039867;28;20052;-57
2022/05/31 01:10:47;;;;;;;0.00;0.00;;;8.70;99.90;;;;;;5026692;28;20080;-56
2022/05/31 01:13:16;;;;;;;0.00;0.00;;;8.70;99.90;;;;;;5021021;28;20083;-57
2022/05/31 01:15:43;;;;;;;0.00;0.00;;;8.70;99.90;;;;;;5022416;28;20470;-57
2022/05/31 01:18:09;;;;;;;0.00;0.00;;;8.70;99.90;;;;;;5022169;28;20038;-58
2022/05/31 01:20:35;;;;;;;0.00;0.00;;;8.70;99.90;;;;;;5020236;28;20178;-57
2022/05/31 01:23:13;;;;;;;0.00;0.00;;;8.70;99.90;;;;;;5022178;28;20562;-57
2022/05/31 01:26:03;;;;;;;0.00;0.00;;;8.70;99.90;;;;;;5021445;28;20038;-58
2022/05/31 01:29:07;;;;;;;0.00;0.00;;;8.70;99.90;;;;;;5022105;28;20095;-57
2022/05/31 01:31:42;;;;;;;0.00;0.00;;;8.70;99.90;;;;;;5021449;28;20080;-58
2022/05/31 01:34:43;;;;;;;0.00;0.00;;;8.60;99.90;;;;;;5021103;28;20048;-58
2022/05/31 01:37:09;;;;;;;0.00;0.00;;;8.90;99.90;;;;;;5021792;28;20057;-58
2022/05/31 01:39:58;;;;;;;0.00;0.00;;;8.70;99.90;;;;;;5021578;28;20505;-58
2022/05/31 01:42:40;;;;;;;0.00;0.00;;;8.70;99.90;;;;;;5021429;28;20103;-58
2022/05/31 01:45:35;;;;;;;0.00;0.00;;;9.80;99.90;;;;;;5023729;28;20056;-57
2022/05/31 01:48:03;;;;;;;0.00;0.00;;;8.80;99.90;;;;;;5035699;28;20056;-58
2022/05/31 01:50:30;;;;;;;0.00;0.00;;;8.80;99.90;;;;;;5040804;28;20052;-58
2022/05/31 01:52:56;;;;;;;0.00;0.00;;;8.90;99.90;;;;;;5041594;28;20033;-58
2022/05/31 01:55:22;;;;;;;0.00;0.00;;;9.30;99.90;;;;;;5040803;28;20049;-57
2022/05/31 01:57:54;;;;;;;0.00;0.00;;;8.90;99.90;;;;;;5041191;28;20048;-57
2022/05/31 02:00:20;;;;;;;0.00;0.00;;;8.90;99.90;;;;;;5041343;28;20041;-57
2022/05/31 02:02:51;;;;;;;0.00;0.00;;;9.00;99.90;;;;;;5041539;28;20505;-57
2022/05/31 02:05:19;;;;;;;0.00;0.00;;;9.00;99.90;;;;;;5040321;28;20067;-58
2022/05/31 02:07:56;;;;;;;0.00;0.00;;;9.00;99.90;;;;;;5041572;28;20102;-57
2022/05/31 02:10:22;;;;;;;0.00;0.00;;;9.00;99.90;;;;;;5040763;28;20049;-57
2022/05/31 02:12:48;;;;;;;0.00;0.00;;;9.00;99.90;;;;;;5040896;28;20407;-57
2022/05/31 02:15:13;;;;;;;0.00;0.00;;;9.00;99.90;;;;;;5041512;28;20045;-57
2022/05/31 02:17:39;;;;;;;0.00;0.00;;;9.00;99.90;;;;;;5040544;28;20161;-57
2022/05/31 02:20:05;;;;;;;0.00;0.00;;;9.00;99.90;;;;;;5040031;28;20049;-59
2022/05/31 02:22:31;;;;;;;0.00;0.00;;;9.00;99.90;;;;;;5040234;28;20518;-57
2022/05/31 02:24:56;;;;;;;0.00;0.00;;;9.00;99.90;;;;;;5040389;28;20049;-57
2022/05/31 02:27:22;;;;;;;0.00;0.00;;;9.10;99.90;;;;;;5040913;28;20060;-57
2022/05/31 02:29:48;;;;;;;0.00;0.00;;;9.10;99.90;;;;;;5040147;28;20095;-57
2022/05/31 02:32:15;;;;;;;0.00;0.00;;;9.10;99.90;;;;;;5041846;28;20041;-57
2022/05/31 02:34:44;;;;;;;0.00;0.00;;;9.10;99.90;;;;;;5041330;28;20534;-58
2022/05/31 02:37:09;;;;;;;0.00;0.00;;;9.10;99.90;;;;;;5041250;28;20037;-57
2022/05/31 02:39:35;;;;;;;0.00;0.00;;;9.10;99.90;;;;;;5040434;28;20507;-57
2022/05/31 02:42:02;;;;;;;0.00;0.00;;;9.10;99.90;;;;;;5040255;28;20076;-58
2022/05/31 02:44:27;;;;;;;0.00;0.00;;;9.10;99.90;;;;;;5038627;28;20746;-58
2022/05/31 02:46:53;;;;;;;0.00;0.00;;;9.10;99.90;;;;;;5029889;28;20124;-58
2022/05/31 02:49:19;;;;;;;0.00;0.00;;;9.10;99.90;;;;;;5020992;28;20356;-57
2022/05/31 02:51:46;;;;;;;0.00;0.00;;;9.10;99.90;;;;;;5021431;28;20120;-57
2022/05/31 02:54:14;;;;;;;0.00;0.00;;;9.10;99.90;;;;;;5021543;28;20058;-58
2022/05/31 02:56:40;;;;;;;0.00;0.00;;;9.10;99.90;;;;;;5020256;28;21123;-58
2022/05/31 02:59:06;;;;;;;0.00;0.00;;;9.10;99.90;;;;;;5020706;28;20581;-57
2022/05/31 03:01:34;;;;;;;0.00;0.00;;;9.10;99.90;;;;;;5020520;28;20550;-58
2022/05/31 03:04:00;;;;;;;0.00;0.00;;;9.10;99.90;;;;;;5019931;28;20064;-58
2022/05/31 03:06:26;;;;;;;0.00;0.00;;;9.00;99.90;;;;;;5020664;28;20099;-57
2022/05/31 03:08:52;;;;;;;0.00;0.00;;;9.10;99.90;;;;;;5020769;28;20041;-58
2022/05/31 03:11:20;;;;;;;0.00;0.00;;;9.10;99.90;;;;;;5019453;28;20045;-58
2022/05/31 03:13:47;;;;;;;0.00;0.00;;;9.10;99.90;;;;;;5020480;28;20791;-58
2022/05/31 03:16:14;;;;;;;0.00;0.00;;;9.10;99.90;;;;;;5021217;28;20033;-58
2022/05/31 03:18:47;;;;;;;0.00;0.00;;;9.10;99.90;;;;;;5020278;28;20120;-58
2022/05/31 03:21:18;;;;;;;0.00;0.00;;;9.10;99.90;;;;;;5025168;28;20057;-57
2022/05/31 03:23:49;;;;;;;0.00;0.00;;;9.10;99.90;;;;;;5024854;28;20447;-57
2022/05/31 03:26:17;;;;;;;0.00;0.00;;;9.10;99.90;;;;;;5023417;28;20128;-57
2022/05/31 03:28:43;;;;;;;0.00;0.00;;;9.10;99.90;;;;;;5024050;28;20435;-57
2022/05/31 03:31:10;;;;;;;0.00;0.00;;;9.10;99.90;;;;;;5024737;28;20049;-58
2022/05/31 03:33:35;;;;;;;0.00;0.00;;;9.20;99.90;;;;;;5024289;28;20107;-57
2022/05/31 03:36:01;;;;;;;0.00;0.00;;;9.10;99.90;;;;;;5022259;28;20045;-58
2022/05/31 03:38:27;;;;;;;0.00;0.00;;;9.00;99.90;;;;;;5023761;28;20670;-58
2022/05/31 03:40:58;;;;;;;0.00;0.00;;;9.10;99.90;;;;;;5023422;28;20038;-57
2022/05/31 03:43:35;;;;;;;0.00;0.00;;;9.10;99.90;;;;;;5023270;28;20042;-57
2022/05/31 03:46:01;;;;;;;0.00;0.00;;;9.20;99.90;;;;;;5033742;28;20049;-58
2022/05/31 03:48:29;;;;;;;0.00;0.00;;;9.10;99.90;;;;;;5025508;28;20065;-57
2022/05/31 03:51:04;;;;;;;0.00;0.00;;;9.20;99.90;;;;;;5023358;28;20087;-58
2022/05/31 03:53:30;;;;;;;0.00;0.00;;;9.20;99.90;;;;;;5023558;28;20038;-57
2022/05/31 03:55:56;;;;;;;0.00;0.00;;;9.20;99.90;;;;;;5023539;28;20048;-57
2022/05/31 03:58:22;;;;;;;0.00;0.00;;;9.20;99.90;;;;;;5021623;28;20042;-58
2022/05/31 04:00:48;;;;;;;0.00;0.00;;;10.20;99.90;;;;;;5023847;28;20041;-57
2022/05/31 04:03:14;;;;;;;0.00;0.00;;;9.10;99.90;;;;;;5023980;28;20059;-58
2022/05/31 04:05:40;;;;;;;0.00;0.00;;;9.10;99.90;;;;;;5022605;28;20041;-57
2022/05/31 04:08:08;;;;;;;0.00;0.00;;;9.10;99.90;;;;;;5023572;28;20072;-57
2022/05/31 04:10:35;;;;;;;0.00;0.00;;;9.10;99.90;;;;;;5021725;28;20096;-57
2022/05/31 04:13:02;;;;;;;0.00;0.00;;;9.10;99.90;;;;;;5022619;28;20537;-58
2022/05/31 04:15:28;;;;;;;0.00;0.00;;;9.10;99.90;;;;;;5023072;28;20049;-58
2022/05/31 04:17:54;;;;;;;0.00;0.00;;;9.10;99.90;;;;;;5023402;28;20046;-57
2022/05/31 04:20:20;;;;;;;0.00;0.00;;;9.10;99.90;;;;;;5023094;28;20144;-58
2022/05/31 04:22:46;;;;;;;0.00;0.00;;;9.10;99.90;;;;;;5022461;28;20140;-58
2022/05/31 04:25:12;;;;;;;0.00;0.00;;;9.20;99.90;;;;;;5023281;28;20045;-58
2022/05/31 04:27:38;;;;;;;0.00;0.00;;;9.30;99.90;;;;;;5022268;28;20037;-57
2022/05/31 04:30:04;;;;;;;0.00;0.00;;;10.30;99.90;;;;;;5023225;28;20475;-57
2022/05/31 04:32:29;;;;;;;0.00;0.00;;;9.20;99.90;;;;;;5021425;28;20041;-57
2022/05/31 04:34:55;;;;;;;0.00;0.00;;;9.20;99.90;;;;;;5022933;28;20491;-57
2022/05/31 04:37:22;;;;;;;0.00;0.00;;;9.20;99.90;;;;;;5023026;28;20053;-57
2022/05/31 04:39:48;;;;;;;0.00;0.00;;;9.20;99.90;;;;;;5021695;28;20110;-57
2022/05/31 04:42:13;;;;;;;0.00;0.00;;;9.30;99.90;;;;;;5023608;28;20538;-57
2022/05/31 04:44:39;;;;;;;0.00;0.00;;;9.40;99.90;;;;;;5025189;28;20527;-57
2022/05/31 04:47:08;;;;;;;0.00;0.00;;;9.40;99.90;;;;;;5031519;28;20254;-57
2022/05/31 04:49:34;;;;;;;0.00;0.00;;;9.40;99.90;;;;;;5022408;28;20044;-57
2022/05/31 04:52:00;;;;;;;0.00;0.00;;;9.40;99.90;;;;;;5022978;28;20451;-57
2022/05/31 04:54:28;;;;;;;0.00;0.00;;;9.50;99.90;;;;;;5023018;28;20125;-57
2022/05/31 04:56:54;;;;;;;0.00;0.00;;;9.50;99.90;;;;;;5020335;28;20122;-57
2022/05/31 04:59:20;;;;;;;0.00;0.00;;;10.00;99.90;;;;;;5022652;28;20404;-57
2022/05/31 05:01:46;;;;;;;0.00;0.00;;;10.40;99.90;;;;;;5022805;28;20114;-56
2022/05/31 05:04:13;;;;;;;0.00;0.00;;;9.60;99.90;;;;;;5022071;28;20033;-57
2022/05/31 05:06:39;;;;;;;0.00;0.00;;;9.60;99.90;;;;;;5022365;28;20045;-57
2022/05/31 05:09:05;;;;;;;0.00;0.00;;;9.60;99.90;;;;;;5022665;28;20056;-57
2022/05/31 05:11:32;;;;;;;0.00;0.00;;;9.80;99.90;;;;;;5021817;28;20091;-56
2022/05/31 05:13:58;;;;;;;0.00;0.00;;;9.60;99.90;;;;;;5021920;28;20133;-57
2022/05/31 05:16:24;;;;;;;0.00;0.00;;;9.70;99.90;;;;;;5022453;28;20457;-57
2022/05/31 05:18:50;;;;;;;0.00;0.00;;;10.70;99.90;;;;;;5020477;28;20133;-57
2022/05/31 05:21:16;;;;;;;0.00;0.00;;;9.80;99.90;;;;;;5021660;28;20133;-57
2022/05/31 05:23:43;;;;;;;0.00;0.00;;;9.80;99.90;;;;;;5022693;28;20613;-56
2022/05/31 05:26:09;;;;;;;0.00;0.00;;;9.80;99.90;;;;;;5021624;28;20068;-57
2022/05/31 05:31:22;;;;;;;0.00;0.00;;;9.90;99.90;;;;;;5021989;28;20049;-56
2022/05/31 05:33:48;;;;;;;0.00;0.00;;;10.00;99.90;;;;;;5022180;28;20120;-57
2022/05/31 05:36:14;;;;;;;0.00;0.00;;;10.00;99.90;;;;;;5021888;28;20037;-57
2022/05/31 05:38:40;;;;;;;0.00;0.00;;;10.10;99.90;;;;;;5036695;28;20038;-57
2022/05/31 05:41:06;;;;;;;0.00;0.00;;;10.10;99.90;;;;;;5020881;28;20046;-57
2022/05/31 05:43:31;;;;;;;0.00;0.00;;;10.10;99.90;;;;;;5021623;28;20124;-57
2022/05/31 05:45:57;;;;;;;0.00;0.00;;;10.10;99.90;;;;;;5030386;28;20051;-56
2022/05/31 05:48:22;;;;;;;0.00;0.00;;;10.20;99.90;;;;;;5022186;28;20045;-57
2022/05/31 05:50:48;;;;;;;0.00;0.00;;;10.20;99.90;;;;;;5021705;28;20041;-57
2022/05/31 05:53:14;;;;;;;0.00;0.00;;;10.30;99.90;;;;;;5021390;28;20041;-58
2022/05/31 05:55:40;;;;;;;0.00;0.00;;;10.30;99.90;;;;;;5020912;28;20049;-57
2022/05/31 05:58:08;;;;;;;0.00;0.00;;;10.30;99.90;;;;;;5021558;28;20803;-58
2022/05/31 06:00:42;;;;;;;0.00;0.00;;;10.40;99.90;;;;;;5021250;28;20076;-57
2022/05/31 06:03:26;;;;;;;0.00;0.00;;;10.50;99.90;;;;;;5021148;28;20037;-57
2022/05/31 06:05:52;;;;;;;0.00;0.00;;;10.60;99.90;;;;;;5020990;28;20057;-57
2022/05/31 06:08:32;;;;;;;0.00;0.00;;;10.70;99.90;;;;;;5020513;28;20515;-57
2022/05/31 06:11:04;;;;;;;0.00;0.00;;;10.70;99.90;;;;;;5020764;28;20132;-57
2022/05/31 06:13:35;;;;;;;0.00;0.00;;;10.80;99.90;;;;;;5020393;28;20102;-57
2022/05/31 06:16:03;;;;;;;0.00;0.00;;;11.00;99.90;;;;;;5020990;28;20481;-57
2022/05/31 06:18:37;;;;;;;0.00;0.00;;;11.00;99.90;;;;;;5020778;28;20056;-57
2022/05/31 06:21:06;;;;;;;0.00;0.00;;;11.00;99.90;;;;;;5019513;28;20054;-57
2022/05/31 06:23:33;;;;;;;0.00;0.00;;;11.10;99.90;;;;;;5020936;28;20041;-57
2022/05/31 06:25:59;;;;;;;0.00;0.00;;;11.20;99.90;;;;;;5020719;28;20124;-58
2022/05/31 06:28:25;;;;;;;0.00;0.00;;;11.20;99.90;;;;;;5019022;28;20339;-58
2022/05/31 06:30:51;;;;;;;0.00;0.00;;;11.30;99.90;;;;;;5020591;28;20124;-58
2022/05/31 06:33:16;;;;;;;0.00;0.00;;;11.40;99.90;;;;;;5019797;28;20042;-57
2022/05/31 06:35:42;;;;;;;0.00;0.00;;;11.40;99.90;;;;;;5021269;28;20077;-56
2022/05/31 06:38:07;;;;;;;0.00;0.00;;;11.50;99.90;;;;;;5020373;28;20099;-58
2022/05/31 06:40:33;;;;;;;0.00;0.00;;;11.60;99.90;;;;;;5020263;28;20056;-57
2022/05/31 06:42:59;;;;;;;0.00;0.00;;;11.60;99.90;;;;;;5020973;28;20634;-58
2022/05/31 06:45:25;;;;;;;0.00;0.00;;;11.70;99.90;;;;;;5024999;28;20530;-57
2022/05/31 06:47:51;;;;;;;0.30;0.03;;;11.80;99.90;;;;;;5027374;28;20046;-58
2022/05/31 06:50:16;;;;;;;0.00;0.00;;;11.90;99.90;;;;;;5020923;28;20160;-58
2022/05/31 06:58:11;;;;;;;0.00;0.00;;;12.30;99.90;;;;;;5024859;28;20037;-59
2022/05/31 07:00:36;;;;;;;0.00;0.00;;;12.50;99.90;;;;;;5024155;28;20494;-58
2022/05/31 07:03:02;;;;;;;0.00;0.00;;;12.80;99.90;;;;;;5024741;28;20077;-58
2022/05/31 07:05:29;;;;;;;0.00;0.00;;;13.00;99.90;;;;;;5024363;28;20053;-58
2022/05/31 07:07:55;;;;;;;0.00;0.00;;;13.30;99.90;;;;;;5024099;28;20041;-58
2022/05/31 07:10:22;;;;;;;0.00;0.00;;;13.30;99.90;;;;;;5023786;28;20033;-57
2022/05/31 07:12:48;;;;;;;0.00;0.00;;;13.30;99.90;;;;;;5034484;28;20053;-57
2022/05/31 07:15:14;;;;;;;0.00;0.00;;;13.60;99.90;;;;;;5044914;28;20033;-58
2022/05/31 07:17:40;;;;;;;0.00;0.00;;;13.70;99.90;;;;;;5043566;28;20110;-58
2022/05/31 07:20:07;;;;;;;0.00;0.00;;;14.10;99.90;;;;;;5044437;28;20045;-57
2022/05/31 07:22:34;;;;;;;0.00;0.00;;;14.00;99.90;;;;;;5044231;28;20047;-58
2022/05/31 07:25:01;;;;;;;0.00;0.00;;;14.30;99.90;;;;;;5043164;28;20041;-59
2022/05/31 07:27:27;;;;;;;0.00;0.00;;;14.50;99.90;;;;;;5043861;28;20132;-58
2022/05/31 07:29:52;;;;;;;0.00;0.00;;;14.20;99.90;;;;;;5040041;28;20049;-57
2022/05/31 07:32:19;;;;;;;0.00;0.00;;;14.20;99.90;;;;;;5035092;28;20052;-57
2022/05/31 07:34:44;;;;;;;0.00;0.00;;;14.40;99.90;;;;;;5027512;28;20042;-57
2022/05/31 07:37:10;;;;;;;0.00;0.00;;;14.50;99.90;;;;;;5024241;28;20037;-58
2022/05/31 07:39:36;;;;;;;0.08;0.08;;;14.70;99.90;;;;;;5023374;28;20053;-58
2022/05/31 07:42:02;;;;;;;0.00;0.00;;;14.60;99.90;;;;;;5023634;28;20041;-58
2022/05/31 07:44:27;;;;;;;0.00;0.00;;;14.90;99.90;;;;;;5025436;28;20041;-58
2022/05/31 07:46:54;;;;;;;0.00;0.00;;;15.20;99.90;;;;;;5033333;28;20047;-58
2022/05/31 07:49:21;;;;;;;0.00;0.00;;;15.20;99.90;;;;;;5023993;28;20144;-58
2022/05/31 07:51:47;;;;;;;0.00;0.00;;;15.50;99.90;;;;;;5023685;28;20120;-58
2022/05/31 07:54:13;;;;;;;0.00;0.00;;;15.80;99.90;;;;;;5023597;28;20441;-60
2022/05/31 07:56:39;;;;;;;0.00;0.00;;;15.60;99.90;;;;;;5022221;28;20618;-59
2022/05/31 07:59:05;;;;;;;0.00;0.00;;;15.80;99.90;;;;;;5022930;28;20041;-60
2022/05/31 08:01:31;;;;;;;0.10;0.10;;;15.60;99.90;;;;;;5038643;28;20060;-59
2022/05/31 08:03:57;;;;;;;0.05;0.05;;;15.90;99.90;;;;;;5023777;28;20041;-59
2022/05/31 08:06:29;;;;;;;0.00;0.00;;;15.90;99.90;;;;;;5023643;28;20132;-61
2022/05/31 08:08:54;;;;;;;0.00;0.00;;;15.80;99.90;;;;;;5023697;28;20057;-59
2022/05/31 08:11:25;;;;;;;0.00;0.00;;;16.10;99.90;;;;;;5022780;28;20041;-60
2022/05/31 08:13:51;;;;;;;0.00;0.00;;;16.10;99.90;;;;;;5023506;28;20053;-59
2022/05/31 08:16:18;;;;;;;0.00;0.00;;;16.40;99.90;;;;;;5023037;28;20358;-60
2022/05/31 08:18:45;;;;;;;0.00;0.00;;;16.40;99.90;;;;;;5023696;28;20134;-59
2022/05/31 08:21:30;;;;;;;0.10;0.10;;;16.30;99.90;;;;;;5023648;28;20053;-61
2022/05/31 08:23:59;;;;;;;0.00;0.00;;;16.10;99.90;;;;;;5022616;28;20041;-60
2022/05/31 08:26:26;;;;;;;0.00;0.00;;;16.40;99.90;;;;;;5023008;28;20045;-60
2022/05/31 08:28:52;;;;;;;0.00;0.00;;;16.00;99.90;;;;;;5022472;28;20041;-60
2022/05/31 08:31:24;;;;;;;0.00;0.00;;;15.60;99.90;;;;;;5023012;28;20112;-60
2022/05/31 08:33:50;;;;;;;0.13;0.10;;;15.10;99.90;;;;;;5022710;28;20033;-60
2022/05/31 08:36:16;;;;;;;0.00;0.00;;;15.80;99.90;;;;;;5023003;28;20507;-60
2022/05/31 08:38:42;;;;;;;0.00;0.00;;;16.20;99.90;;;;;;5022935;28;20052;-60
2022/05/31 08:41:23;;;;;;;0.00;0.00;;;15.80;99.90;;;;;;5022634;28;20069;-62
2022/05/31 08:43:48;;;;;;;0.00;0.00;;;15.80;99.90;;;;;;5022739;28;20033;-60
2022/05/31 08:46:30;;;;;;;0.00;0.00;;;16.00;99.90;;;;;;5034574;28;20737;-61
2022/05/31 08:48:59;;;;;;;0.00;0.00;;;16.50;99.90;;;;;;5020996;28;20040;-61
2022/05/31 08:51:53;;;;;;;0.00;0.00;;;16.70;99.90;;;;;;5036729;28;20053;-61
2022/05/31 08:57:33;;;;;;;0.00;0.00;;;16.90;99.90;;;;;;5022514;28;20108;-62
2022/05/31 09:00:31;;;;;;;0.00;0.00;;;17.10;99.90;;;;;;5022158;28;20041;-61
2022/05/31 09:03:23;;;;;;;0.00;0.00;;;16.60;99.90;;;;;;5013404;28;20052;-61
2022/05/31 09:06:05;;;;;;;0.00;0.00;;;16.20;99.90;;;;;;5022109;28;20053;-60
2022/05/31 09:08:45;;;;;;;0.45;0.10;;;16.70;99.90;;;;;;5038301;28;20051;-61
2022/05/31 09:11:11;;;;;;;0.10;0.10;;;16.50;99.90;;;;;;5042066;28;20069;-61
2022/05/31 09:13:46;;;;;;;0.00;0.00;;;16.50;99.90;;;;;;5041558;28;20135;-61
2022/05/31 09:16:23;;;;;;;0.00;0.00;;;16.80;99.90;;;;;;5042590;28;20052;-59
2022/05/31 09:18:53;;;;;;;0.00;0.00;;;16.80;99.90;;;;;;5040031;28;20075;-62
2022/05/31 09:21:38;;;;;;;0.00;0.00;;;16.80;99.90;;;;;;5041313;28;20041;-62
2022/05/31 09:24:06;;;;;;;0.00;0.00;;;17.40;99.90;;;;;;5041336;28;20041;-61
2022/05/31 09:26:46;;;;;;;0.00;0.00;;;17.80;99.90;;;;;;5041003;28;20064;-61
2022/05/31 09:29:16;;;;;;;0.00;0.00;;;18.20;99.90;;;;;;5041912;28;20670;-62
2022/05/31 09:32:03;;;;;;;0.00;0.00;;;18.30;99.90;;;;;;5041788;28;20041;-61
2022/05/31 09:34:51;;;;;;;0.00;0.00;;;18.40;99.90;;;;;;5041421;28;20112;-62
2022/05/31 09:38:10;;;;;;;0.00;0.00;;;18.70;99.90;;;;;;5040909;28;20053;-61
2022/05/31 09:41:09;;;;;;;0.00;0.00;;;18.80;99.90;;;;;;5040036;28;20052;-61
2022/05/31 09:43:52;;;;;;;0.00;0.00;;;18.20;99.90;;;;;;4998332;28;20161;-61
2022/05/31 09:46:36;;;;;;;0.00;0.00;;;18.00;99.90;;;;;;5031035;28;20056;-61
2022/05/31 09:49:23;;;;;;;0.00;0.00;;;18.50;99.90;;;;;;5036369;28;20049;-61
2022/05/31 09:51:50;;;;;;;0.10;0.00;;;17.70;99.90;;;;;;5036331;28;20084;-62
2022/05/31 09:57:09;;;;;;;0.00;0.00;;;16.80;99.90;;;;;;5021345;28;20420;-61
2022/05/31 10:00:00;;;;;;;0.00;0.00;;;16.80;99.90;;;;;;5019708;28;20864;-62
2022/05/31 10:02:32;;;;;;;0.17;0.17;;;17.20;99.90;;;;;;5021180;28;20488;-61
2022/05/31 10:05:21;;;;;;;0.00;0.00;;;17.40;99.90;;;;;;5020679;28;20111;-61
2022/05/31 10:07:48;;;;;;;0.00;0.00;;;18.00;99.90;;;;;;5021305;28;20427;-61
2022/05/31 10:10:17;;;;;;;0.00;0.00;;;18.30;99.90;;;;;;5020672;28;20539;-61
2022/05/31 10:12:55;;;;;;;0.00;0.00;;;18.30;99.90;;;;;;5020884;28;20046;-61
2022/05/31 10:15:44;;;;;;;0.00;0.00;;;18.30;99.90;;;;;;5020765;28;20033;-62
2022/05/31 10:18:12;;;;;;;0.17;0.10;;;18.20;99.90;;;;;;5020881;28;20106;-61
2022/05/31 10:20:55;;;;;;;0.75;0.55;;;17.20;99.90;;;;;;5020963;28;20045;-62
2022/05/31 10:23:23;;;;;;;0.00;0.00;;;17.40;99.90;;;;;;5020087;28;20037;-62
2022/05/31 10:25:56;;;;;;;0.10;0.00;;;17.40;99.90;;;;;;5020165;28;20377;-61
2022/05/31 10:28:49;;;;;;;0.00;0.00;;;17.60;99.90;;;;;;5020131;28;20091;-62
2022/05/31 10:31:35;;;;;;;0.00;0.00;;;17.90;99.90;;;;;;5028243;28;20041;-62
2022/05/31 10:34:05;;;;;;;0.00;0.00;;;17.60;99.90;;;;;;5039973;28;20501;-62
2022/05/31 10:36:47;;;;;;;0.00;0.00;;;17.30;99.90;;;;;;5040329;28;20539;-62
2022/05/31 10:39:20;;;;;;;0.00;0.00;;;17.10;99.90;;;;;;5039939;28;20098;-61
2022/05/31 10:41:48;;;;;;;0.00;0.00;;;17.10;99.90;;;;;;5039009;28;20257;-61
2022/05/31 10:44:33;;;;;;;0.00;0.00;;;17.50;99.90;;;;;;5029762;28;20103;-61
2022/05/31 10:47:08;;;;;;;0.00;0.00;;;17.70;99.90;;;;;;5036252;28;20048;-61
2022/05/31 10:49:35;;;;;;;0.00;0.00;;;17.70;99.90;;;;;;5040473;28;20048;-61
2022/05/31 10:52:17;;;;;;;0.00;0.00;;;17.70;99.90;;;;;;5039838;28;20044;-62
2022/05/31 10:55:05;;;;;;;0.00;0.00;;;17.80;99.90;;;;;;5039952;28;20040;-60
2022/05/31 10:57:45;;;;;;;0.00;0.00;;;17.80;99.90;;;;;;5039848;28;20048;-59
2022/05/31 11:00:31;;;;;;;0.00;0.00;;;17.60;99.90;;;;;;5039243;28;20049;-59
2022/05/31 11:03:33;;;;;;;0.00;0.00;;;17.70;99.90;;;;;;5039654;28;20114;-59
2022/05/31 11:06:26;;;;;;;0.10;0.10;;;17.60;99.90;;;;;;5039867;28;20511;-59
2022/05/31 11:12:32;;;;;;;0.00;0.00;;;17.40;99.90;;;;;;5041098;28;20360;-59
2022/05/31 11:15:31;;;;;;;0.00;0.00;;;17.80;99.90;;;;;;5040566;28;20041;-59
2022/05/31 11:18:05;;;;;;;0.00;0.00;;;18.10;99.90;;;;;;5040410;28;20037;-59
2022/05/31 11:21:03;;;;;;;0.00;0.00;;;18.30;99.90;;;;;;5038941;28;20063;-59
2022/05/31 11:23:49;;;;;;;0.10;0.10;;;18.50;99.90;;;;;;5039762;28;20743;-59
2022/05/31 11:26:40;;;;;;;0.00;0.00;;;17.90;99.90;;;;;;5040166;28;20133;-58
2022/05/31 11:29:29;;;;;;;0.00;0.00;;;17.20;99.90;;;;;;5040290;28;20052;-59
2022/05/31 11:32:28;;;;;;;0.00;0.00;;;17.10;99.90;;;;;;5040406;28;20044;-59
2022/05/31 11:35:24;;;;;;;0.00;0.00;;;17.20;99.90;;;;;;5019651;28;20053;-59
2022/05/31 11:38:03;;;;;;;0.05;0.05;;;17.50;99.90;;;;;;5040167;28;20055;-58
2022/05/31 11:41:02;;;;;;;0.10;0.10;;;17.70;99.90;;;;;;5040745;28;20376;-58
2022/05/31 11:43:36;;;;;;;0.00;0.00;;;17.60;99.90;;;;;;5043771;28;20087;-59
2022/05/31 11:46:26;;;;;;;0.00;0.00;;;17.60;99.90;;;;;;5037365;28;20041;-59
2022/05/31 11:48:57;;;;;;;0.00;0.00;;;17.70;99.90;;;;;;5038716;28;20053;-59
2022/05/31 11:51:48;;;;;;;0.00;0.00;;;18.20;99.90;;;;;;5043927;28;20052;-59
2022/05/31 11:55:25;;;;;;;0.00;0.00;;;18.90;99.90;;;;;;5043881;28;20124;-59
2022/05/31 11:57:51;;;;;;;0.00;0.00;;;18.70;99.90;;;;;;5043201;28;20052;-60
2022/05/31 12:00:18;;;;;;;0.00;0.00;;;18.50;99.90;;;;;;5041940;28;20053;-59
2022/05/31 12:02:56;;;;;;;0.00;0.00;;;18.70;99.90;;;;;;5044036;28;20450;-59
2022/05/31 12:05:33;;;;;;;0.00;0.00;;;18.50;99.90;;;;;;5043068;28;20053;-58
2022/05/31 12:08:14;;;;;;;0.10;0.10;;;17.90;99.90;;;;;;5043439;28;20122;-59
2022/05/31 12:10:46;;;;;;;0.00;0.00;;;17.50;99.90;;;;;;5041401;28;20045;-59
2022/05/31 12:13:15;;;;;;;0.00;0.00;;;17.30;99.90;;;;;;5043667;28;20048;-59
2022/05/31 12:15:43;;;;;;;0.00;0.00;;;18.00;99.90;;;;;;5043547;28;20040;-59
2022/05/31 12:18:21;;;;;;;0.00;0.00;;;17.90;99.90;;;;;;5043362;28;20391;-58
2022/05/31 12:20:59;;;;;;;0.20;0.20;;;17.60;99.90;;;;;;5039802;28;20113;-58
2022/05/31 12:23:37;;;;;;;0.00;0.00;;;17.80;99.90;;;;;;5030619;28;20044;-58
2022/05/31 12:26:14;;;;;;;0.00;0.00;;;17.90;99.90;;;;;;5041951;28;20057;-60
2022/05/31 12:29:05;;;;;;;0.10;0.10;;;18.00;99.90;;;;;;5027444;28;20124;-58
2022/05/31 12:31:37;;;;;;;0.00;0.00;;;18.20;99.90;;;;;;5022047;28;20150;-59
2022/05/31 12:34:35;;;;;;;0.00;0.00;;;18.40;99.90;;;;;;5022669;28;20444;-58
2022/05/31 12:37:02;;;;;;;0.00;0.00;;;18.60;99.90;;;;;;5022933;28;20176;-58
2022/05/31 12:39:33;;;;;;;0.00;0.00;;;18.80;99.90;;;;;;5021894;28;20049;-59
2022/05/31 12:42:14;;;;;;;0.00;0.00;;;18.80;99.90;;;;;;5022553;28;20056;-58
2022/05/31 12:44:48;;;;;;;0.00;0.00;;;19.00;99.90;;;;;;5029730;28;20045;-58
2022/05/31 12:47:18;;;;;;;0.00;0.00;;;18.80;99.90;;;;;;5032040;28;20042;-59
2022/05/31 12:49:55;;;;;;;0.00;0.00;;;18.80;99.90;;;;;;5022384;28;20111;-58
2022/05/31 12:55:09;;;;;;;0.00;0.00;;;18.20;99.90;;;;;;5020910;28;20439;-59
2022/05/31 13:00:32;;;;;;;0.00;0.00;;;18.40;99.90;;;;;;5020012;28;20162;-59
2022/05/31 13:02:59;;;;;;;0.00;0.00;;;18.00;99.90;;;;;;5022659;28;20046;-58
2022/05/31 13:05:32;;;;;;;0.00;0.00;;;18.10;99.90;;;;;;5026087;28;20427;-58
2022/05/31 13:08:15;;;;;;;0.00;0.00;;;18.30;99.90;;;;;;5028509;28;20079;-58
2022/05/31 13:19:34;;;;;;;0.00;0.00;;;17.90;99.90;;;;;;5029495;28;20056;-59
2022/05/31 13:22:02;;;;;;;0.00;0.00;;;17.80;99.90;;;;;;5028922;28;20063;-58
2022/05/31 13:24:28;;;;;;;0.00;0.00;;;17.70;99.90;;;;;;5026265;28;20780;-58
2022/05/31 13:26:54;;;;;;;0.00;0.00;;;17.40;99.90;;;;;;5027509;28;20175;-58
2022/05/31 13:29:20;;;;;;;0.00;0.00;;;17.20;99.90;;;;;;5028607;28;20092;-58
2022/05/31 13:31:54;;;;;;;0.00;0.00;;;17.20;99.90;;;;;;5028487;28;20044;-59
2022/05/31 13:34:42;;;;;;;0.00;0.00;;;17.20;99.90;;;;;;5028363;28;20041;-58
2022/05/31 13:37:20;;;;;;;0.00;0.00;;;17.00;99.90;;;;;;5028126;28;20139;-58
2022/05/31 13:39:48;;;;;;;0.10;0.10;;;16.90;99.90;;;;;;5027670;28;20123;-58
2022/05/31 13:42:34;;;;;;;0.00;0.00;;;16.80;99.90;;;;;;5028630;28;20081;-58
2022/05/31 13:45:10;;;;;;;0.00;0.00;;;16.80;99.90;;;;;;5027619;28;20041;-58
2022/05/31 13:47:46;;;;;;;0.10;0.10;;;16.80;99.90;;;;;;5027609;28;20056;-58